createdAt,value
2018-07-14T00:01:01.338Z,5.77
2018-07-14T00:03:28.943Z,4.27
2018-07-14T00:05:56.471Z,5.10
2018-07-14T00:08:23.728Z,5.67
2018-07-14T00:10:51.016Z,5.17
2018-07-14T00:13:18.518Z,6.17
2018-07-14T00:15:45.856Z,5.57
2018-07-14T00:18:13.078Z,5.60
2018-07-14T00:20:40.306Z,6.00
2018-07-14T00:23:08.018Z,5.97
2018-07-14T00:25:40.801Z,5.93
2018-07-14T00:28:08.096Z,5.97
2018-07-14T00:30:35.393Z,6.17
2018-07-14T00:33:02.633Z,5.80
2018-07-14T00:35:30.107Z,6.00
2018-07-14T00:37:57.437Z,4.77
2018-07-14T00:40:24.911Z,6.67
2018-07-14T00:42:52.273Z,4.83
2018-07-14T00:45:19.541Z,5.83
2018-07-14T00:47:46.934Z,6.00
2018-07-14T00:50:14.265Z,5.80
2018-07-14T00:52:41.488Z,6.37
2018-07-14T00:55:09.031Z,5.17
2018-07-14T00:57:37.057Z,6.00
2018-07-14T01:00:04.437Z,6.00
2018-07-14T01:02:31.802Z,6.37
2018-07-14T01:04:59.074Z,5.47
2018-07-14T01:07:26.908Z,5.60
2018-07-14T01:09:54.121Z,5.77
2018-07-14T01:12:21.337Z,4.40
2018-07-14T01:14:48.604Z,6.20
2018-07-14T01:17:15.874Z,5.90
2018-07-14T01:19:43.126Z,5.63
2018-07-14T01:22:10.365Z,5.13
2018-07-14T01:24:37.684Z,5.40
2018-07-14T01:27:04.969Z,5.70
2018-07-14T01:29:32.280Z,4.80
2018-07-14T01:31:59.541Z,5.83
2018-07-14T01:34:26.746Z,4.70
2018-07-14T01:36:54.077Z,6.40
2018-07-14T01:39:21.306Z,4.97
2018-07-14T01:41:48.525Z,6.23
2018-07-14T01:44:15.797Z,5.83
2018-07-14T01:46:43.054Z,6.40
2018-07-14T01:49:10.285Z,6.53
2018-07-14T01:51:37.558Z,6.87
2018-07-14T01:54:04.951Z,6.40
2018-07-14T01:56:32.486Z,6.67
2018-07-14T01:58:59.754Z,6.60
2018-07-14T02:01:27.012Z,6.60
2018-07-14T02:03:54.347Z,6.40
2018-07-14T02:06:21.633Z,5.93
2018-07-14T02:08:48.917Z,7.27
2018-07-14T02:11:16.226Z,6.60
2018-07-14T02:13:43.764Z,6.80
2018-07-14T02:16:11.265Z,6.53
2018-07-14T02:18:38.499Z,5.30
2018-07-14T02:21:06.027Z,6.77
2018-07-14T02:23:33.311Z,6.80
2018-07-14T02:26:00.558Z,5.50
2018-07-14T02:28:27.810Z,7.00
2018-07-14T02:30:55.219Z,7.10
2018-07-14T02:33:22.945Z,5.63
2018-07-14T02:35:50.192Z,7.67
2018-07-14T02:38:17.435Z,7.20
2018-07-14T02:40:44.739Z,8.37
2018-07-14T02:43:12.048Z,7.83
2018-07-14T02:45:39.576Z,8.63
2018-07-14T02:48:07.425Z,8.07
2018-07-14T02:50:34.717Z,6.87
2018-07-14T02:53:02.468Z,6.83
2018-07-14T02:55:29.708Z,9.50
2018-07-14T02:57:57.685Z,8.50
2018-07-14T03:00:25.213Z,9.43
2018-07-14T03:02:52.478Z,8.93
2018-07-14T03:05:20.147Z,7.80
2018-07-14T03:07:47.488Z,9.23
2018-07-14T03:10:14.937Z,7.27
2018-07-14T03:12:42.197Z,9.90
2018-07-14T03:15:09.419Z,7.97
2018-07-14T03:17:36.793Z,9.30
2018-07-14T03:20:04.223Z,7.40
2018-07-14T03:22:31.604Z,10.83
2018-07-14T03:24:58.808Z,8.27
2018-07-14T03:27:26.171Z,10.87
2018-07-14T03:29:53.536Z,8.10
2018-07-14T03:32:21.109Z,10.67
2018-07-14T03:34:48.315Z,10.43
2018-07-14T03:37:15.642Z,10.10
2018-07-14T03:39:42.876Z,10.33
2018-07-14T03:42:10.155Z,10.70
2018-07-14T03:44:37.427Z,10.03
2018-07-14T03:47:04.871Z,9.67
2018-07-14T03:49:32.210Z,8.40
2018-07-14T03:52:00.102Z,10.87
2018-07-14T03:54:27.311Z,10.63
2018-07-14T03:56:54.714Z,10.90
2018-07-14T03:59:22.011Z,11.10
2018-07-14T04:01:49.248Z,10.77
2018-07-14T04:04:16.470Z,10.00
2018-07-14T04:06:43.849Z,11.30
2018-07-14T04:09:11.291Z,9.00
2018-07-14T04:11:38.839Z,11.90
2018-07-14T04:14:06.210Z,11.50
2018-07-14T04:16:34.025Z,11.50
2018-07-14T04:19:01.284Z,12.00
2018-07-14T04:21:28.514Z,11.63
2018-07-14T04:23:55.906Z,12.30
2018-07-14T12:19:15.587Z,4.77
2018-07-14T12:21:42.833Z,4.07
2018-07-14T12:24:10.462Z,4.43
2018-07-14T12:26:37.925Z,3.70
2018-07-14T12:29:05.443Z,4.63
2018-07-14T12:31:32.831Z,4.43
2018-07-14T12:34:00.337Z,4.17
2018-07-14T12:36:27.605Z,4.60
2018-07-14T12:38:55.005Z,4.03
2018-07-14T12:41:22.401Z,4.40
2018-07-14T12:43:50.116Z,4.53
2018-07-14T12:46:17.400Z,4.00
2018-07-14T12:48:44.669Z,4.37
2018-07-14T12:51:12.062Z,4.23
2018-07-14T12:53:39.391Z,3.70
2018-07-14T12:56:06.790Z,3.30
2018-07-14T12:58:34.143Z,4.00
2018-07-14T13:01:02.513Z,4.20
2018-07-14T13:03:29.834Z,3.93
2018-07-14T13:05:57.219Z,3.90
2018-07-14T13:08:24.587Z,4.13
2018-07-14T13:10:51.900Z,4.10
2018-07-14T13:13:20.198Z,3.33
2018-07-14T13:15:47.671Z,4.40
2018-07-14T13:18:15.211Z,4.10
2018-07-14T13:20:42.584Z,3.47
2018-07-14T13:23:09.902Z,4.00
2018-07-14T13:25:37.253Z,3.87
2018-07-14T13:28:04.667Z,3.67
2018-07-14T13:30:31.963Z,3.60
2018-07-14T13:32:59.379Z,4.47
2018-07-14T13:35:26.718Z,3.50
2018-07-14T13:37:54.078Z,3.30
2018-07-14T13:40:21.528Z,3.80
2018-07-14T13:42:48.991Z,3.50
2018-07-14T13:45:16.823Z,3.37
2018-07-14T13:47:44.278Z,3.50
2018-07-14T13:50:11.574Z,3.70
2018-07-14T13:52:39.023Z,3.13
2018-07-14T13:55:06.763Z,3.77
2018-07-14T13:57:34.264Z,3.60
2018-07-14T14:00:01.832Z,3.50
2018-07-14T14:02:29.381Z,3.30
2018-07-14T14:04:56.788Z,3.40
2018-07-14T14:07:24.165Z,3.43
2018-07-14T14:09:51.709Z,4.20
2018-07-14T14:12:19.185Z,3.93
2018-07-14T14:14:46.658Z,4.20
2018-07-14T14:17:14.000Z,3.47
2018-07-14T14:19:41.394Z,3.93
2018-07-14T14:22:08.870Z,4.03
2018-07-14T14:24:36.239Z,3.70
2018-07-14T14:27:03.803Z,3.43
2018-07-14T14:29:31.326Z,3.70
2018-07-14T14:31:58.821Z,3.40
2018-07-14T14:34:26.211Z,3.70
2018-07-14T14:36:53.659Z,4.20
2018-07-14T14:39:21.077Z,3.80
2018-07-14T14:41:48.637Z,3.53
2018-07-14T14:44:16.206Z,3.60
2018-07-14T14:46:43.602Z,3.63
2018-07-14T14:49:11.213Z,3.77
2018-07-14T14:51:38.808Z,3.43
2018-07-14T14:54:06.307Z,3.40
2018-07-14T14:56:33.789Z,3.13
2018-07-14T14:59:01.112Z,3.93
2018-07-14T15:01:28.775Z,3.33
2018-07-14T15:03:56.191Z,3.37
2018-07-14T15:06:23.565Z,3.70
2018-07-14T15:08:50.905Z,3.67
2018-07-14T15:11:18.211Z,3.70
2018-07-14T15:13:45.609Z,3.13
2018-07-14T15:16:12.942Z,3.40
2018-07-14T15:18:40.279Z,3.37
2018-07-14T15:21:07.529Z,3.50
2018-07-14T15:23:35.020Z,3.20
2018-07-14T15:26:02.275Z,3.00
2018-07-14T15:28:29.593Z,3.43
2018-07-14T15:30:56.925Z,3.00
2018-07-14T15:33:24.426Z,3.33
2018-07-14T15:35:51.627Z,3.13
2018-07-14T15:38:18.986Z,3.17
2018-07-14T15:40:46.269Z,3.13
2018-07-14T15:43:14.158Z,3.40
2018-07-14T15:45:41.477Z,3.47
2018-07-14T15:48:08.805Z,3.37
2018-07-14T15:50:36.181Z,3.47
2018-07-14T15:53:03.555Z,3.60
2018-07-14T15:55:30.815Z,3.33
2018-07-14T15:57:58.186Z,4.00
2018-07-14T16:00:25.488Z,7.13
2018-07-14T16:02:52.796Z,4.13
2018-07-14T16:05:20.057Z,3.27
2018-07-14T16:07:47.421Z,3.70
2018-07-14T16:10:14.724Z,4.27
2018-07-14T16:12:41.952Z,4.87
2018-07-14T16:15:09.204Z,4.20
2018-07-14T16:17:36.492Z,4.07
2018-07-14T16:20:03.902Z,12.93
2018-07-14T16:22:31.186Z,3.63
2018-07-14T16:24:58.553Z,6.17
2018-07-14T16:27:25.952Z,9.43
2018-07-14T16:29:53.242Z,3.37
2018-07-14T16:32:20.546Z,3.93
2018-07-14T16:34:47.891Z,4.03
2018-07-14T16:37:15.189Z,4.03
2018-07-14T16:39:42.505Z,3.67
2018-07-14T16:42:09.880Z,3.40
2018-07-14T16:44:37.163Z,4.00
2018-07-14T16:47:04.558Z,3.53
2018-07-14T16:49:31.894Z,3.93
2018-07-14T16:51:59.188Z,5.37
2018-07-14T16:54:27.390Z,4.67
2018-07-14T16:56:54.665Z,4.20
2018-07-14T16:59:22.018Z,5.07
2018-07-14T17:01:49.460Z,3.83
2018-07-14T17:04:17.081Z,4.37
2018-07-14T17:06:44.421Z,4.20
2018-07-14T17:09:12.454Z,10.83
2018-07-14T17:11:40.042Z,6.70
2018-07-14T17:14:07.616Z,5.27
2018-07-14T17:16:34.809Z,5.30
2018-07-14T17:19:02.136Z,4.27
2018-07-14T17:21:29.448Z,4.33
2018-07-14T17:23:56.861Z,3.83
2018-07-14T17:26:24.324Z,4.10
2018-07-14T17:28:51.678Z,3.80
2018-07-14T17:31:19.052Z,4.87
2018-07-14T17:33:46.439Z,4.60
2018-07-14T17:36:13.830Z,3.83
2018-07-14T17:38:41.334Z,4.13
2018-07-14T17:41:08.764Z,3.80
2018-07-14T17:43:36.154Z,4.77
2018-07-14T17:46:03.508Z,3.07
2018-07-14T17:48:30.966Z,3.70
2018-07-14T17:50:58.283Z,3.27
2018-07-14T17:53:25.688Z,3.70
2018-07-14T17:55:52.987Z,3.40
2018-07-14T17:58:20.347Z,3.53
2018-07-14T18:00:47.737Z,3.80
2018-07-14T18:03:15.170Z,3.70
2018-07-14T18:05:42.552Z,2.90
2018-07-14T18:08:09.843Z,3.37
2018-07-14T18:10:37.112Z,3.27
2018-07-14T18:13:04.596Z,2.60
2018-07-14T18:15:32.048Z,3.00
2018-07-14T18:18:00.370Z,3.70
2018-07-14T18:20:28.405Z,5.37
2018-07-14T18:22:55.875Z,3.37
2018-07-14T18:25:23.220Z,3.27
2018-07-14T18:27:51.044Z,2.80
2018-07-14T18:30:18.485Z,3.00
2018-07-14T18:32:45.998Z,3.70
2018-07-14T18:35:13.401Z,3.07
2018-07-14T18:37:40.789Z,2.80
2018-07-14T18:40:08.526Z,4.30
2018-07-14T18:42:35.910Z,3.27
2018-07-14T18:45:03.238Z,2.70
2018-07-14T18:47:30.570Z,3.60
2018-07-14T18:49:58.025Z,2.77
2018-07-14T18:52:25.486Z,6.20
2018-07-14T18:54:52.824Z,4.47
2018-07-14T18:57:20.293Z,4.17
2018-07-14T18:59:47.738Z,3.90
2018-07-14T19:02:15.197Z,3.33
2018-07-14T19:04:42.507Z,3.40
2018-07-14T19:07:09.850Z,3.57
2018-07-14T19:09:37.298Z,4.50
2018-07-14T19:12:04.671Z,3.80
2018-07-14T19:14:32.001Z,3.03
2018-07-14T19:16:59.336Z,7.00
2018-07-14T19:19:26.723Z,27.70
2018-07-14T19:21:54.137Z,13.53
2018-07-14T19:24:21.554Z,7.83
2018-07-14T19:26:48.831Z,4.00
2018-07-14T19:29:16.842Z,4.40
2018-07-14T19:31:44.279Z,4.23
2018-07-14T19:34:11.655Z,3.63
2018-07-14T19:36:38.962Z,3.70
2018-07-14T19:39:06.630Z,3.50
2018-07-14T19:41:34.015Z,8.43
2018-07-14T19:44:01.303Z,4.83
2018-07-14T19:46:28.670Z,9.00
2018-07-14T19:48:55.976Z,10.77
2018-07-14T19:51:23.374Z,10.20
2018-07-14T19:53:51.030Z,28.07
2018-07-14T19:56:18.467Z,33.67
2018-07-14T19:58:45.633Z,18.13
2018-07-14T20:01:12.912Z,13.90
2018-07-14T20:03:40.214Z,29.10
2018-07-14T20:06:08.154Z,16.07
2018-07-14T20:08:35.606Z,8.50
2018-07-14T20:11:02.894Z,6.10
2018-07-14T20:13:30.274Z,11.03
2018-07-14T20:15:57.646Z,8.77
2018-07-14T20:18:24.930Z,7.33
2018-07-14T20:20:52.195Z,11.77
2018-07-14T20:23:19.479Z,15.20
2018-07-14T20:25:46.803Z,7.73
2018-07-14T20:28:14.182Z,5.57
2018-07-14T20:30:41.577Z,6.77
2018-07-14T20:33:08.857Z,7.20
2018-07-14T20:35:36.175Z,6.03
2018-07-14T20:38:03.455Z,5.47
2018-07-14T20:40:30.812Z,7.87
2018-07-14T20:42:58.028Z,18.23
2018-07-14T20:45:25.253Z,8.03
2018-07-14T20:47:52.621Z,5.83
2018-07-14T20:50:20.049Z,8.43
2018-07-14T20:52:47.433Z,27.03
2018-07-14T20:55:14.764Z,9.60
2018-07-14T20:57:42.209Z,4.97
2018-07-14T21:00:09.425Z,4.50
2018-07-14T21:02:36.676Z,3.23
2018-07-14T21:05:03.996Z,2.83
2018-07-14T21:07:31.307Z,3.00
2018-07-14T21:09:58.765Z,6.40
2018-07-14T21:12:26.084Z,5.27
2018-07-14T21:14:53.293Z,4.90
2018-07-14T21:17:20.578Z,4.10
2018-07-14T21:19:48.017Z,4.50
2018-07-14T21:22:15.818Z,5.50
2018-07-14T21:24:43.129Z,8.53
2018-07-14T21:27:10.409Z,35.53
2018-07-14T21:29:37.719Z,14.10
2018-07-14T21:32:04.978Z,9.30
2018-07-14T21:34:32.205Z,28.23
2018-07-14T21:36:59.511Z,13.93
2018-07-14T21:39:26.833Z,15.73
2018-07-14T21:41:54.350Z,7.50
2018-07-14T21:44:21.931Z,4.33
2018-07-14T21:46:49.359Z,4.30
2018-07-14T21:49:16.660Z,6.10
2018-07-14T21:51:44.012Z,3.73
2018-07-14T21:54:11.249Z,4.57
2018-07-14T21:56:38.508Z,4.17
2018-07-14T21:59:05.877Z,4.93
2018-07-14T22:01:37.703Z,4.73
2018-07-14T22:04:05.131Z,5.40
2018-07-14T22:06:32.541Z,6.50
2018-07-14T22:08:59.811Z,4.17
2018-07-14T22:11:27.089Z,3.80
2018-07-14T22:13:54.846Z,3.47
2018-07-14T22:16:22.903Z,4.07
2018-07-14T22:18:50.910Z,3.80
2018-07-14T22:21:18.370Z,4.00
2018-07-14T22:23:45.782Z,4.33
2018-07-14T22:26:13.115Z,4.53
2018-07-14T22:28:40.526Z,4.23
2018-07-14T22:31:07.913Z,4.07
2018-07-14T22:33:35.309Z,4.80
2018-07-14T22:36:02.694Z,4.40
2018-07-14T22:38:30.182Z,4.27
2018-07-14T22:40:57.644Z,4.53
2018-07-14T22:43:24.914Z,4.27
2018-07-14T22:45:52.372Z,4.57
2018-07-14T22:48:19.774Z,4.10
2018-07-14T22:50:47.150Z,3.97
2018-07-14T22:53:14.613Z,4.33
2018-07-14T22:55:41.867Z,3.87
2018-07-14T22:58:09.138Z,3.90
2018-07-14T23:00:36.552Z,4.10
2018-07-14T23:03:04.597Z,3.97
2018-07-14T23:05:31.875Z,4.13
2018-07-14T23:07:59.141Z,4.30
2018-07-14T23:10:26.627Z,5.23
2018-07-14T23:12:53.951Z,4.60
2018-07-14T23:15:21.355Z,4.77
2018-07-14T23:17:48.814Z,4.73
2018-07-14T23:20:16.137Z,4.70
2018-07-14T23:22:43.595Z,4.40
2018-07-14T23:25:10.887Z,5.07
2018-07-14T23:27:38.153Z,5.03
2018-07-14T23:30:05.554Z,5.10
2018-07-14T23:32:32.976Z,5.10
2018-07-14T23:35:00.400Z,5.37
2018-07-14T23:37:27.784Z,5.60
2018-07-14T23:39:55.081Z,5.23
2018-07-14T23:42:22.554Z,5.20
2018-07-14T23:44:49.861Z,5.97
2018-07-14T23:47:17.561Z,5.10
2018-07-14T23:49:44.837Z,5.60
2018-07-14T23:52:12.213Z,5.83
2018-07-14T23:54:39.749Z,5.03
2018-07-14T23:57:07.588Z,5.83
2018-07-14T23:59:34.841Z,5.80
